Time;durP1;ratioP1;P1;durP2;ratioP2;P2;SDS_P1;SDS_P2;PMS_P1;PMS_P2;Temp;Humidity;BMP_temperature;BMP_pressure;BME280_temperature;BME280_humidity;BME280_pressure;Samples;Min_cycle;Max_cycle;Signal;HPM_P1;HPM_P2
2022/01/13 00:01:30;;;;;;;118.23;38.50;;;-0.80;59.10;;;;;;4993056;28;20331;-82
2022/01/13 00:04:01;;;;;;;50.70;18.00;;;-0.80;59.00;;;;;;4997340;28;20363;-82
2022/01/13 00:06:27;;;;;;;22.27;8.50;;;-0.80;59.20;;;;;;5002628;28;20312;-82
2022/01/13 00:08:53;;;;;;;7.73;3.60;;;-0.80;59.00;;;;;;5014470;28;20272;-83
2022/01/13 00:11:18;;;;;;;9.50;3.67;;;-0.80;58.90;;;;;;4996121;28;20396;-83
2022/01/13 00:13:50;;;;;;;9.73;4.20;;;-0.90;58.90;;;;;;5007477;28;20037;-82
2022/01/13 00:18:51;;;;;;;6.78;3.35;;;-0.90;58.90;;;;;;5011437;28;20641;-83
2022/01/13 00:21:42;;;;;;;6.10;2.87;;;-1.00;59.10;;;;;;4986536;28;20026;-83
2022/01/13 00:24:05;;;;;;;6.77;2.80;;;-1.00;59.00;;;;;;5012852;28;20284;-83
2022/01/13 00:26:33;;;;;;;6.87;2.80;;;-0.90;59.00;;;;;;5009511;28;20292;-83
2022/01/13 00:29:02;;;;;;;5.83;3.20;;;-1.00;58.80;;;;;;4985491;28;20293;-82
2022/01/13 00:31:35;;;;;;;7.23;3.80;;;-1.00;58.70;;;;;;5000826;28;20277;-82
2022/01/13 00:34:02;;;;;;;;;;;-1.00;59.40;;;;;;4994809;28;20336;-83
2022/01/13 00:36:30;;;;;;;9.50;3.53;;;-1.00;58.80;;;;;;5001042;28;19909;-83
2022/01/13 00:38:56;;;;;;;8.53;3.60;;;-1.00;58.70;;;;;;5005036;28;20797;-82
2022/01/13 00:41:26;;;;;;;6.73;3.50;;;-1.00;58.80;;;;;;5000321;28;20285;-82
2022/01/13 00:43:51;;;;;;;8.93;3.00;;;-1.10;58.80;;;;;;5000019;28;20288;-82
2022/01/13 00:46:26;;;;;;;5.97;2.30;;;-1.10;59.00;;;;;;5002217;28;20672;-82
2022/01/13 00:48:54;;;;;;;7.03;2.80;;;-1.10;58.90;;;;;;4998875;28;20032;-82
2022/01/13 00:51:21;;;;;;;6.30;2.90;;;-1.10;59.10;;;;;;5014053;28;20312;-82
2022/01/13 00:53:47;;;;;;;7.07;2.43;;;-1.10;59.00;;;;;;5004278;28;20315;-82
2022/01/13 00:56:13;;;;;;;4.17;2.23;;;-1.30;58.90;;;;;;5002362;28;20288;-82
2022/01/13 00:58:39;;;;;;;3.73;1.93;;;-1.30;59.10;;;;;;5004980;28;20639;-82
2022/01/13 01:01:06;;;;;;;2.83;1.43;;;-1.30;59.20;;;;;;4995816;28;20037;-82
2022/01/13 01:03:33;;;;;;;4.33;2.00;;;-1.30;59.30;;;;;;4984719;28;20037;-82
2022/01/13 01:06:01;;;;;;;3.80;1.67;;;-1.30;59.20;;;;;;5000487;28;20293;-81
2022/01/13 01:08:27;;;;;;;5.13;2.10;;;-1.30;59.10;;;;;;5005454;28;20335;-82
2022/01/13 01:10:56;;;;;;;4.90;2.60;;;-1.30;59.10;;;;;;4999888;28;20345;-82
2022/01/13 01:13:28;;;;;;;9.17;3.10;;;-1.30;58.90;;;;;;4996656;28;20650;-82
2022/01/13 01:15:57;;;;;;;5.43;2.65;;;-1.30;59.10;;;;;;4993718;28;20289;-82
2022/01/13 01:24:08;;;;;;;;;;;-1.30;59.10;;;;;;4987621;28;20281;-82
2022/01/13 01:29:18;;;;;;;6.93;3.27;;;-1.40;58.90;;;;;;4980502;28;20265;-82
2022/01/13 01:31:48;;;;;;;5.75;2.90;;;-1.40;59.30;;;;;;4993542;28;20317;-82
2022/01/13 01:37:00;;;;;;;6.70;3.30;;;-1.50;59.30;;;;;;4977947;28;20264;-82
2022/01/13 01:39:26;;;;;;;7.60;3.73;;;-1.50;59.50;;;;;;4990805;28;20281;-82
2022/01/13 01:41:54;;;;;;;11.23;3.67;;;-1.50;59.60;;;;;;4993307;28;20425;-82
2022/01/13 01:44:29;;;;;;;7.13;3.33;;;-1.50;59.60;;;;;;4994777;28;20036;-82
2022/01/13 01:46:58;;;;;;;6.90;3.30;;;-1.50;59.80;;;;;;4993075;28;20279;-82
2022/01/13 01:49:25;;;;;;;7.50;4.03;;;-1.50;59.90;;;;;;4993696;28;20265;-82
2022/01/13 01:51:59;;;;;;;8.47;3.87;;;-1.50;59.80;;;;;;4991983;28;20355;-83
2022/01/13 01:54:26;;;;;;;6.70;3.73;;;-1.40;59.90;;;;;;4993088;28;20269;-83
2022/01/13 01:56:53;;;;;;;9.77;3.53;;;-1.40;59.70;;;;;;4981450;28;20769;-83
2022/01/13 01:59:23;;;;;;;8.03;4.50;;;-1.50;59.80;;;;;;4994486;28;20782;-83
2022/01/13 02:01:50;;;;;;;10.03;4.23;;;-1.40;59.80;;;;;;4989953;28;20297;-83
2022/01/13 02:04:17;;;;;;;6.03;3.53;;;-1.50;59.50;;;;;;4990153;28;20316;-83
2022/01/13 02:06:44;;;;;;;7.83;3.50;;;-1.50;59.80;;;;;;4993046;28;20299;-83
2022/01/13 02:09:14;;;;;;;7.37;3.30;;;-1.50;59.80;;;;;;4993149;28;20292;-83
2022/01/13 02:11:45;;;;;;;7.17;3.63;;;-1.50;59.70;;;;;;4994042;28;20289;-83
2022/01/13 02:16:52;;;;;;;7.03;3.37;;;-1.60;60.00;;;;;;5001986;28;20693;-83
2022/01/13 02:19:19;;;;;;;9.73;2.97;;;-1.60;60.10;;;;;;5002872;28;20275;-83
2022/01/13 02:21:45;;;;;;;6.10;3.30;;;-1.50;60.00;;;;;;4995827;28;20276;-82
2022/01/13 02:24:11;;;;;;;7.10;4.10;;;-1.60;60.10;;;;;;4979999;28;20383;-83
2022/01/13 02:26:37;;;;;;;13.47;5.33;;;-1.50;60.20;;;;;;5013414;28;20057;-83
2022/01/13 02:29:03;;;;;;;12.60;5.23;;;-1.60;60.10;;;;;;4995822;28;20845;-83
2022/01/13 02:31:29;;;;;;;12.30;6.03;;;-1.60;60.40;;;;;;5013412;28;20268;-83
2022/01/13 02:33:55;;;;;;;8.80;4.30;;;-1.60;60.20;;;;;;4995818;28;20688;-83
2022/01/13 02:36:22;;;;;;;12.67;6.17;;;-1.60;60.30;;;;;;4995745;28;20033;-83
2022/01/13 02:38:53;;;;;;;9.17;5.63;;;-1.60;60.50;;;;;;5013468;28;20108;-83
2022/01/13 02:41:19;;;;;;;18.80;6.90;;;-1.60;60.70;;;;;;4979582;28;20802;-83
2022/01/13 02:43:47;;;;;;;12.73;6.60;;;-1.60;60.70;;;;;;5013099;28;20666;-83
2022/01/13 02:49:05;;;;;;;13.87;6.97;;;-1.50;60.80;;;;;;5014840;28;20786;-83
2022/01/13 02:51:31;;;;;;;13.13;5.43;;;-1.50;60.70;;;;;;4995471;28;20710;-83
2022/01/13 02:53:57;;;;;;;12.77;5.20;;;-1.50;60.90;;;;;;4995411;28;20276;-83
2022/01/13 02:56:23;;;;;;;8.33;3.30;;;-1.50;60.80;;;;;;4995711;28;20348;-83
2022/01/13 02:58:49;;;;;;;10.63;4.50;;;-1.60;60.50;;;;;;4995445;28;20029;-83
2022/01/13 03:01:15;;;;;;;10.40;5.73;;;-1.60;60.70;;;;;;4971156;28;20044;-83
2022/01/13 03:03:42;;;;;;;9.20;5.17;;;-1.60;60.70;;;;;;4995401;28;20488;-81
2022/01/13 03:06:09;;;;;;;12.83;5.40;;;-1.60;60.60;;;;;;5012966;28;20037;-81
2022/01/13 03:08:36;;;;;;;8.93;4.40;;;-1.60;60.70;;;;;;4995343;28;20275;-81
2022/01/13 03:11:02;;;;;;;9.30;3.90;;;-1.60;60.60;;;;;;4995573;28;20288;-81
2022/01/13 03:13:29;;;;;;;7.90;3.47;;;-1.60;60.40;;;;;;4994970;28;20281;-82
2022/01/13 03:15:55;;;;;;;5.83;2.83;;;-1.60;60.50;;;;;;4992285;28;20301;-82
2022/01/13 03:18:21;;;;;;;8.60;4.07;;;-1.50;60.40;;;;;;4983522;28;20288;-82
2022/01/13 03:20:46;;;;;;;5.40;3.43;;;-1.50;60.50;;;;;;4987440;28;20031;-81
2022/01/13 03:23:16;;;;;;;5.30;2.80;;;-1.50;60.50;;;;;;5005602;28;20061;-81
2022/01/13 03:25:45;;;;;;;5.07;2.60;;;-1.50;60.70;;;;;;5013451;28;20022;-81
2022/01/13 03:28:16;;;;;;;4.80;2.10;;;-1.50;60.60;;;;;;4976099;28;20273;-82
2022/01/13 03:30:43;;;;;;;4.33;2.20;;;-1.40;60.40;;;;;;4995157;28;20264;-82
2022/01/13 03:33:08;;;;;;;5.23;2.50;;;-1.40;60.30;;;;;;4995349;28;20285;-82
2022/01/13 03:35:36;;;;;;;6.57;2.10;;;-1.40;60.30;;;;;;4994926;28;20288;-82
2022/01/13 03:38:03;;;;;;;3.40;2.03;;;-1.40;60.10;;;;;;4995269;28;20018;-82
2022/01/13 03:40:29;;;;;;;3.73;2.00;;;-1.40;60.00;;;;;;5012347;28;20364;-82
2022/01/13 03:42:55;;;;;;;2.60;1.70;;;-1.40;60.10;;;;;;5000872;28;20297;-82
2022/01/13 03:45:21;;;;;;;4.47;1.60;;;-1.40;60.10;;;;;;5012758;28;20421;-81
2022/01/13 03:47:47;;;;;;;4.07;2.20;;;-1.40;60.00;;;;;;5002601;28;20307;-82
2022/01/13 03:50:13;;;;;;;6.17;2.53;;;-1.30;59.90;;;;;;4995253;28;20022;-81
2022/01/13 03:53:02;;;;;;;7.60;2.77;;;-1.30;59.90;;;;;;4995042;28;20022;-81
2022/01/13 03:55:38;;;;;;;7.23;3.50;;;-1.30;59.80;;;;;;4994897;28;20030;-82
2022/01/13 03:58:28;;;;;;;7.03;3.77;;;-1.30;59.70;;;;;;4998429;28;20674;-82
2022/01/13 04:01:31;;;;;;;9.77;4.30;;;-1.30;59.80;;;;;;4998220;28;20627;-82
2022/01/13 04:03:57;;;;;;;5.97;2.50;;;-1.30;59.90;;;;;;4998352;28;20268;-82
2022/01/13 04:06:23;;;;;;;7.43;2.77;;;-1.40;59.70;;;;;;4998774;28;20057;-82
2022/01/13 04:08:50;;;;;;;6.10;2.70;;;-1.40;59.80;;;;;;4998743;28;20109;-82
2022/01/13 04:11:25;;;;;;;5.27;2.67;;;-1.50;59.70;;;;;;4998234;28;20400;-82
2022/01/13 04:16:19;;;;;;;4.73;2.70;;;-1.50;59.80;;;;;;5015878;28;20303;-80
2022/01/13 04:18:49;;;;;;;7.27;2.97;;;-1.50;59.70;;;;;;5015124;28;20383;-81
2022/01/13 04:21:17;;;;;;;6.57;3.73;;;-1.50;59.90;;;;;;5001036;28;20350;-82
2022/01/13 04:23:44;;;;;;;5.77;3.37;;;-1.50;59.90;;;;;;4997371;28;20265;-81
2022/01/13 04:26:10;;;;;;;8.67;4.83;;;-1.50;59.80;;;;;;4997541;28;20304;-82
2022/01/13 04:28:37;;;;;;;7.60;4.77;;;-1.50;59.70;;;;;;4998189;28;20715;-82
2022/01/13 04:31:03;;;;;;;9.20;4.97;;;-1.60;59.80;;;;;;4998085;28;20272;-82
2022/01/13 04:33:30;;;;;;;8.37;4.87;;;-1.50;60.00;;;;;;4997595;28;20301;-81
2022/01/13 04:35:57;;;;;;;11.97;5.53;;;-1.50;60.10;;;;;;4997893;28;20264;-82
2022/01/13 04:38:23;;;;;;;8.03;4.53;;;-1.50;59.90;;;;;;4997904;28;20858;-82
2022/01/13 04:40:55;;;;;;;8.80;4.53;;;-1.50;59.90;;;;;;4997811;28;20351;-82
2022/01/13 04:43:22;;;;;;;9.40;4.47;;;-1.40;59.90;;;;;;4997925;28;20030;-82
2022/01/13 04:45:48;;;;;;;10.23;4.73;;;-1.50;59.80;;;;;;5008781;28;20432;-82
2022/01/13 04:48:14;;;;;;;11.27;5.27;;;-1.50;59.80;;;;;;4997509;28;20273;-82
2022/01/13 04:50:41;;;;;;;10.40;4.93;;;-1.50;60.00;;;;;;4987314;28;20281;-81
2022/01/13 04:53:07;;;;;;;8.37;4.43;;;-1.50;60.00;;;;;;4993401;28;20280;-82
2022/01/13 04:55:35;;;;;;;13.33;4.83;;;-1.40;60.10;;;;;;5015086;28;20277;-82
2022/01/13 04:58:01;;;;;;;10.80;4.40;;;-1.40;60.20;;;;;;5015230;28;20750;-82
2022/01/13 05:00:29;;;;;;;9.00;4.07;;;-1.50;60.00;;;;;;4997423;28;20264;-81
2022/01/13 05:02:55;;;;;;;12.00;4.57;;;-1.50;60.00;;;;;;4997561;28;20285;-82
2022/01/13 05:05:21;;;;;;;8.60;3.63;;;-1.50;60.00;;;;;;4994552;28;20379;-82
2022/01/13 05:07:48;;;;;;;10.27;4.23;;;-1.50;60.00;;;;;;4997118;28;20285;-82
2022/01/13 05:10:14;;;;;;;9.63;4.67;;;-1.50;60.00;;;;;;5014751;28;20260;-82
2022/01/13 05:12:48;;;;;;;10.90;5.67;;;-1.60;59.90;;;;;;4997353;28;20730;-82
2022/01/13 05:15:26;;;;;;;14.53;6.23;;;-1.60;60.00;;;;;;4997007;28;20285;-82
2022/01/13 05:20:22;;;;;;;13.80;6.87;;;-1.60;59.80;;;;;;5014861;28;20265;-82
2022/01/13 05:22:48;;;;;;;13.77;6.77;;;-1.60;60.10;;;;;;5014465;28;20369;-82
2022/01/13 05:25:19;;;;;;;14.73;7.20;;;-1.60;60.20;;;;;;5002867;28;20272;-82
2022/01/13 05:27:45;;;;;;;14.77;6.70;;;-1.70;60.10;;;;;;4978932;28;20281;-82
2022/01/13 05:30:12;;;;;;;12.93;5.97;;;-1.70;60.20;;;;;;4994529;28;20287;-82
2022/01/13 05:32:37;;;;;;;10.67;6.03;;;-1.70;60.40;;;;;;5014294;28;20363;-82
2022/01/13 05:35:04;;;;;;;17.87;8.13;;;-1.70;60.40;;;;;;5014616;28;20352;-82
2022/01/13 05:37:30;;;;;;;19.30;9.03;;;-1.70;60.30;;;;;;4997371;28;20028;-82
2022/01/13 05:39:56;;;;;;;9.73;6.37;;;-1.70;60.30;;;;;;4994343;28;20270;-82
2022/01/13 05:42:23;;;;;;;10.60;6.20;;;-1.70;60.50;;;;;;5008677;28;20319;-81
2022/01/13 05:44:49;;;;;;;9.77;5.20;;;-1.60;60.40;;;;;;4996560;28;20327;-82
2022/01/13 05:47:14;;;;;;;7.40;4.27;;;-1.70;60.40;;;;;;4996511;28;20771;-82
2022/01/13 05:49:42;;;;;;;9.93;4.03;;;-1.70;60.40;;;;;;4995832;28;20026;-82
2022/01/13 05:52:12;;;;;;;7.43;4.10;;;-1.70;60.30;;;;;;5000532;28;20027;-81
2022/01/13 05:54:38;;;;;;;7.73;3.73;;;-1.70;60.50;;;;;;4978140;28;20274;-82
2022/01/13 05:57:05;;;;;;;12.13;4.33;;;-1.80;60.40;;;;;;5013467;28;20280;-82
2022/01/13 05:59:31;;;;;;;9.57;4.17;;;-1.80;60.30;;;;;;4993244;28;20299;-82
2022/01/13 06:01:57;;;;;;;11.23;4.80;;;-1.80;60.60;;;;;;4990952;28;20269;-82
2022/01/13 06:04:23;;;;;;;12.67;4.93;;;-1.80;60.60;;;;;;4996339;28;20810;-82
2022/01/13 06:06:49;;;;;;;12.70;5.33;;;-1.80;60.60;;;;;;5019933;28;20271;-82
2022/01/13 06:09:15;;;;;;;10.43;6.77;;;-1.90;60.60;;;;;;5009666;28;20389;-82
2022/01/13 06:11:44;;;;;;;12.87;6.53;;;-1.90;60.70;;;;;;4993813;28;20032;-82
2022/01/13 06:14:11;;;;;;;14.63;7.50;;;-1.80;60.70;;;;;;5013869;28;20420;-82
2022/01/13 06:16:36;;;;;;;15.80;8.97;;;-1.90;60.60;;;;;;5013372;28;20285;-82
2022/01/13 06:19:03;;;;;;;19.57;9.70;;;-1.90;60.70;;;;;;4995954;28;20708;-82
2022/01/13 06:21:29;;;;;;;18.77;9.67;;;-1.90;60.70;;;;;;4995539;28;20026;-82
2022/01/13 06:23:54;;;;;;;13.57;7.50;;;-1.80;60.80;;;;;;5013499;28;20323;-82
2022/01/13 06:26:20;;;;;;;15.43;7.97;;;-1.80;60.80;;;;;;4995840;28;20022;-81
2022/01/13 06:28:46;;;;;;;11.53;6.80;;;-1.80;60.90;;;;;;4995890;28;20022;-82
2022/01/13 06:31:12;;;;;;;8.30;4.37;;;-1.80;60.80;;;;;;4996776;28;20068;-82
2022/01/13 06:33:37;;;;;;;8.60;5.57;;;-1.80;60.80;;;;;;5011535;28;20026;-82
2022/01/13 06:36:04;;;;;;;16.83;9.43;;;-1.80;60.80;;;;;;5012210;28;20104;-82
2022/01/13 06:38:33;;;;;;;17.97;9.60;;;-1.90;60.60;;;;;;4995924;28;20056;-82
2022/01/13 06:41:01;;;;;;;20.83;10.77;;;-1.90;60.60;;;;;;5004866;28;20340;-82
2022/01/13 06:43:28;;;;;;;24.07;12.60;;;-1.90;60.90;;;;;;5003294;28;20280;-82
2022/01/13 06:45:54;;;;;;;31.67;14.97;;;-2.00;61.00;;;;;;5012612;28;20271;-82
2022/01/13 06:48:20;;;;;;;24.93;13.23;;;-2.00;60.90;;;;;;5005649;28;20281;-82
2022/01/13 06:50:46;;;;;;;33.47;14.47;;;-2.00;60.90;;;;;;5012478;28;20026;-82
2022/01/13 06:53:12;;;;;;;45.67;18.67;;;-2.00;61.10;;;;;;4994377;28;20026;-82
2022/01/13 06:55:37;;;;;;;41.87;16.90;;;-2.00;61.20;;;;;;4995726;28;20054;-82
2022/01/13 06:58:03;;;;;;;36.87;16.73;;;-2.00;61.30;;;;;;4995512;28;20415;-82
2022/01/13 07:00:30;;;;;;;29.57;14.93;;;-2.00;61.20;;;;;;4995218;28;20057;-82
2022/01/13 07:02:58;;;;;;;28.57;13.27;;;-2.10;61.10;;;;;;4994207;28;20284;-82
2022/01/13 07:05:24;;;;;;;28.93;12.83;;;-2.00;61.30;;;;;;4993348;28;20658;-81
2022/01/13 07:07:50;;;;;;;35.70;14.73;;;-2.00;61.10;;;;;;4994198;28;20277;-81
2022/01/13 07:10:16;;;;;;;30.07;14.07;;;-1.90;61.20;;;;;;5013083;28;20093;-82
2022/01/13 07:12:42;;;;;;;28.23;14.00;;;-2.00;60.90;;;;;;5009126;28;20364;-82
2022/01/13 07:15:10;;;;;;;21.67;10.83;;;-2.00;60.90;;;;;;4996182;28;20500;-82
2022/01/13 07:17:36;;;;;;;23.13;11.37;;;-2.00;60.90;;;;;;4991944;28;20272;-81
2022/01/13 07:20:03;;;;;;;18.87;9.57;;;-2.00;60.90;;;;;;4990284;28;20632;-82
2022/01/13 07:22:29;;;;;;;26.23;10.93;;;-2.00;61.00;;;;;;4990198;28;20740;-82
2022/01/13 07:24:55;;;;;;;22.53;11.50;;;-2.00;61.00;;;;;;4991548;28;20350;-82
2022/01/13 07:27:21;;;;;;;26.07;11.83;;;-1.90;61.10;;;;;;4993069;28;20352;-82
2022/01/13 07:29:48;;;;;;;30.93;12.00;;;-2.00;61.00;;;;;;4992777;28;20127;-82
2022/01/13 07:32:15;;;;;;;31.17;11.17;;;-2.00;61.20;;;;;;4978717;28;20637;-82
2022/01/13 07:34:41;;;;;;;22.70;11.43;;;-2.00;61.30;;;;;;4979206;28;20262;-82
2022/01/13 07:37:08;;;;;;;25.90;12.47;;;-1.90;61.30;;;;;;4995552;28;20309;-81
2022/01/13 07:39:35;;;;;;;29.93;12.80;;;-2.00;61.20;;;;;;4995165;28;20428;-82
2022/01/13 07:42:03;;;;;;;31.60;15.07;;;-2.00;61.40;;;;;;4995801;28;20311;-82
2022/01/13 07:44:29;;;;;;;34.20;17.13;;;-2.00;61.50;;;;;;4994033;28;20285;-82
2022/01/13 07:46:58;;;;;;;27.20;14.33;;;-1.90;61.80;;;;;;4994525;28;20316;-82
2022/01/13 07:49:24;;;;;;;28.90;15.80;;;-1.80;61.40;;;;;;4992444;28;20030;-82
2022/01/13 07:51:50;;;;;;;29.33;14.60;;;-1.90;61.30;;;;;;4976194;28;20317;-82
2022/01/13 07:54:15;;;;;;;33.77;15.63;;;-1.80;61.30;;;;;;4982978;28;20278;-82
2022/01/13 07:56:41;;;;;;;29.80;14.80;;;-1.70;61.20;;;;;;4996742;28;20121;-82
2022/01/13 07:59:07;;;;;;;37.23;18.07;;;-1.70;61.20;;;;;;4993977;28;20038;-82
2022/01/13 08:01:33;;;;;;;33.80;15.77;;;-1.70;61.00;;;;;;4996463;28;20015;-82
2022/01/13 08:03:58;;;;;;;31.40;17.03;;;-1.70;61.10;;;;;;4993523;28;20026;-82
2022/01/13 08:06:24;;;;;;;33.30;16.00;;;-1.70;61.10;;;;;;4995169;28;20038;-82
2022/01/13 08:08:50;;;;;;;29.77;14.83;;;-1.70;61.10;;;;;;4996257;28;20023;-82
2022/01/13 08:11:16;;;;;;;21.73;10.80;;;-1.60;61.10;;;;;;4995306;28;20026;-82
2022/01/13 08:13:43;;;;;;;23.63;9.63;;;-1.70;60.90;;;;;;4993770;28;20018;-82
2022/01/13 08:16:10;;;;;;;22.63;10.40;;;-1.60;61.00;;;;;;4994906;28;20329;-82
2022/01/13 08:21:22;;;;;;;28.33;12.33;;;-1.60;61.10;;;;;;4977165;28;20826;-82
2022/01/13 08:23:49;;;;;;;29.50;13.80;;;-1.60;61.00;;;;;;4976947;28;20290;-82
2022/01/13 08:26:16;;;;;;;32.00;13.90;;;-1.60;61.10;;;;;;4993969;28;20840;-82
2022/01/13 08:28:42;;;;;;;29.90;13.67;;;-1.60;61.10;;;;;;4994625;28;20282;-82
2022/01/13 08:31:08;;;;;;;24.90;11.30;;;-1.60;61.00;;;;;;4995004;28;20273;-82
2022/01/13 08:33:35;;;;;;;26.07;12.73;;;-1.60;61.00;;;;;;4996174;28;20057;-82
2022/01/13 08:36:01;;;;;;;29.60;11.83;;;-1.60;61.00;;;;;;4994917;28;20268;-81
2022/01/13 08:38:26;;;;;;;27.30;14.07;;;-1.60;60.90;;;;;;4993949;28;20290;-81
2022/01/13 08:40:56;;;;;;;36.70;15.00;;;-1.50;61.10;;;;;;4985562;28;20271;-81
2022/01/13 08:43:23;;;;;;;27.93;12.60;;;-1.50;61.00;;;;;;4996239;28;20022;-81
2022/01/13 08:45:49;;;;;;;23.73;12.00;;;-1.40;60.90;;;;;;5003429;28;20316;-81
2022/01/13 08:48:15;;;;;;;23.70;11.60;;;-1.40;61.00;;;;;;4994027;28;20305;-81
2022/01/13 08:50:41;;;;;;;30.87;12.23;;;-1.40;61.00;;;;;;4994423;28;20085;-82
2022/01/13 08:53:07;;;;;;;21.30;12.17;;;-1.40;60.90;;;;;;4994311;28;20376;-81
2022/01/13 08:55:34;;;;;;;22.00;11.20;;;-1.40;61.10;;;;;;4994130;28;20387;-82
2022/01/13 08:57:59;;;;;;;26.70;11.97;;;-1.30;61.20;;;;;;4994128;28;20616;-82
2022/01/13 09:00:27;;;;;;;59.90;22.30;;;-1.30;61.20;;;;;;4994153;28;20270;-82
2022/01/13 09:02:52;;;;;;;46.50;17.97;;;-1.20;61.10;;;;;;4991898;28;20027;-81
2022/01/13 09:05:20;;;;;;;22.43;11.90;;;-1.20;61.00;;;;;;4990537;28;20293;-82
2022/01/13 09:07:47;;;;;;;22.47;11.03;;;-1.10;61.10;;;;;;4974739;28;20089;-82
2022/01/13 09:10:15;;;;;;;26.27;11.43;;;-1.10;61.20;;;;;;4974809;28;20277;-81
2022/01/13 09:12:41;;;;;;;18.80;9.60;;;-1.00;61.20;;;;;;4990855;28;20317;-81
2022/01/13 09:15:31;;;;;;;43.40;15.37;;;-1.00;61.30;;;;;;4980445;28;20321;-81
2022/01/13 09:17:59;;;;;;;22.67;10.83;;;-0.90;61.30;;;;;;4995436;28;20046;-82
2022/01/13 09:20:25;;;;;;;18.63;8.63;;;-0.80;61.30;;;;;;4978158;28;20273;-81
2022/01/13 09:22:51;;;;;;;31.23;12.17;;;-0.80;61.90;;;;;;4995363;28;20740;-82
2022/01/13 09:25:17;;;;;;;39.13;14.60;;;-0.60;61.40;;;;;;4977942;28;20033;-82
2022/01/13 09:27:43;;;;;;;24.13;10.90;;;-0.50;61.50;;;;;;4977848;28;20112;-82
2022/01/13 09:30:12;;;;;;;17.97;8.60;;;-0.20;61.80;;;;;;4995180;28;20265;-83
2022/01/13 09:32:38;;;;;;;23.83;9.73;;;0.10;61.60;;;;;;4977873;28;20485;-83
2022/01/13 09:35:06;;;;;;;19.13;8.73;;;0.40;61.50;;;;;;4977619;28;20480;-83
2022/01/13 09:37:33;;;;;;;19.10;8.13;;;0.60;61.20;;;;;;4977525;28;20488;-83
2022/01/13 09:39:59;;;;;;;24.17;7.57;;;0.80;60.90;;;;;;4989521;28;20069;-84
2022/01/13 09:42:26;;;;;;;12.43;7.30;;;0.90;60.40;;;;;;4996909;28;20080;-83
2022/01/13 09:44:54;;;;;;;15.40;7.20;;;1.00;59.90;;;;;;4996969;28;20025;-83
2022/01/13 09:47:21;;;;;;;16.03;8.43;;;1.20;59.60;;;;;;4996961;28;20033;-84
2022/01/13 09:49:48;;;;;;;20.20;10.37;;;1.20;59.20;;;;;;4996733;28;20034;-84
2022/01/13 09:52:14;;;;;;;30.63;15.23;;;1.30;59.20;;;;;;5013043;28;20053;-84
2022/01/13 09:54:39;;;;;;;23.77;12.77;;;1.40;59.00;;;;;;5013119;28;20068;-84
2022/01/13 09:57:05;;;;;;;22.70;10.87;;;1.50;58.60;;;;;;5013071;28;20022;-84
2022/01/13 09:59:31;;;;;;;20.10;9.80;;;1.50;58.50;;;;;;5013040;28;20499;-84
2022/01/13 10:01:56;;;;;;;18.17;9.43;;;1.60;58.40;;;;;;5013022;28;20033;-84
2022/01/13 10:04:22;;;;;;;19.07;9.37;;;1.70;58.50;;;;;;5013325;28;20137;-83
2022/01/13 10:06:48;;;;;;;18.90;9.00;;;1.80;58.10;;;;;;5013177;28;20030;-84
2022/01/13 10:09:16;;;;;;;18.20;8.93;;;1.90;58.30;;;;;;5012976;28;20029;-84
2022/01/13 10:11:48;;;;;;;19.30;10.17;;;2.20;58.30;;;;;;5012974;28;20473;-84
2022/01/13 10:16:54;;;;;;;18.70;8.47;;;2.40;57.30;;;;;;5014194;28;20468;-85
2022/01/13 10:19:38;;;;;;;21.07;9.83;;;2.50;57.40;;;;;;4996797;28;20483;-85
2022/01/13 10:22:13;;;;;;;17.57;10.30;;;2.70;57.20;;;;;;4996871;28;20361;-85
2022/01/13 10:24:42;;;;;;;18.83;7.90;;;2.80;56.80;;;;;;4996383;28;20026;-85
2022/01/13 10:27:12;;;;;;;18.90;8.90;;;2.90;56.70;;;;;;4996833;28;20408;-85
2022/01/13 10:29:52;;;;;;;18.50;9.97;;;3.00;56.40;;;;;;4996179;28;20405;-84
2022/01/13 10:32:21;;;;;;;15.53;7.77;;;3.10;56.20;;;;;;4976541;28;20037;-85
2022/01/13 10:34:51;;;;;;;12.13;6.10;;;3.30;56.10;;;;;;4994315;28;20029;-85
2022/01/13 10:37:20;;;;;;;13.10;6.37;;;3.50;55.40;;;;;;4995772;28;20034;-85
2022/01/13 10:39:49;;;;;;;11.47;5.87;;;3.80;55.00;;;;;;5013640;28;20109;-86
2022/01/13 10:45:08;;;;;;;14.93;5.83;;;4.00;53.60;;;;;;5013644;28;20036;-86
2022/01/13 10:47:34;;;;;;;14.87;6.13;;;4.10;53.50;;;;;;4992218;28;20026;-86
2022/01/13 10:50:09;;;;;;;13.27;6.53;;;4.20;53.20;;;;;;4976522;28;20470;-87
2022/01/13 10:52:35;;;;;;;12.03;6.57;;;4.20;52.90;;;;;;5006292;28;20072;-86
2022/01/13 10:55:13;;;;;;;12.73;6.60;;;4.40;52.80;;;;;;4995943;28;20869;-86
2022/01/13 10:57:42;;;;;;;10.10;5.50;;;4.50;52.40;;;;;;4995987;28;20026;-86
2022/01/13 11:00:17;;;;;;;13.07;5.67;;;4.80;52.50;;;;;;4995862;28;20049;-86
2022/01/13 11:02:57;;;;;;;13.80;5.90;;;4.90;51.80;;;;;;5007074;28;20097;-86
2022/01/13 11:05:27;;;;;;;12.17;5.20;;;5.00;51.70;;;;;;5012917;28;20376;-86
2022/01/13 11:07:54;;;;;;;9.17;4.63;;;5.00;51.10;;;;;;5010242;28;20030;-86
2022/01/13 11:10:21;;;;;;;12.57;5.23;;;5.00;51.30;;;;;;5019436;28;20026;-86
2022/01/13 11:12:55;;;;;;;11.40;5.17;;;5.10;51.10;;;;;;4990859;28;20070;-86
2022/01/13 11:15:21;;;;;;;12.60;5.40;;;5.30;50.90;;;;;;5014894;28;20508;-87
2022/01/13 11:17:49;;;;;;;8.03;4.40;;;5.40;50.50;;;;;;5020617;28;20361;-87
2022/01/13 11:20:20;;;;;;;10.67;4.77;;;5.50;50.10;;;;;;5009920;28;20041;-84
2022/01/13 11:22:48;;;;;;;13.93;6.23;;;5.50;49.60;;;;;;5007727;28;20117;-84
2022/01/13 11:25:18;;;;;;;14.03;4.77;;;5.50;49.40;;;;;;5019339;28;20484;-84
2022/01/13 11:27:45;;;;;;;7.93;4.40;;;5.50;49.30;;;;;;5005864;28;20052;-87
2022/01/13 11:30:14;;;;;;;9.47;4.90;;;5.60;49.10;;;;;;5001191;28;20033;-86
2022/01/13 11:32:42;;;;;;;9.23;4.60;;;5.80;48.90;;;;;;5000273;28;20504;-87
2022/01/13 11:35:20;;;;;;;10.73;4.83;;;5.90;48.60;;;;;;4982647;28;20030;-87
2022/01/13 11:37:47;;;;;;;11.40;4.23;;;6.00;48.10;;;;;;4982763;28;20393;-87
2022/01/13 11:40:28;;;;;;;11.83;3.70;;;6.10;47.70;;;;;;5000048;28;20030;-87
2022/01/13 11:42:55;;;;;;;12.27;3.60;;;6.10;47.30;;;;;;4982685;28;20038;-87
2022/01/13 11:45:22;;;;;;;7.00;3.57;;;6.10;47.20;;;;;;4991835;28;20536;-87
2022/01/13 11:48:07;;;;;;;8.30;3.93;;;6.00;46.90;;;;;;5002106;28;20037;-86
2022/01/13 11:50:42;;;;;;;9.40;3.57;;;5.90;47.20;;;;;;4985997;28;20433;-87
2022/01/13 11:53:27;;;;;;;13.90;3.80;;;6.10;47.20;;;;;;5019595;28;20032;-87
2022/01/13 11:56:01;;;;;;;9.60;4.13;;;6.10;47.00;;;;;;5002149;28;20116;-87
2022/01/13 11:58:40;;;;;;;11.40;3.87;;;6.20;46.90;;;;;;5001983;28;20113;-87
2022/01/13 12:01:23;;;;;;;7.43;4.20;;;6.20;46.50;;;;;;5001965;28;20053;-86
2022/01/13 12:03:53;;;;;;;9.77;3.93;;;6.30;46.30;;;;;;5001851;28;20034;-86
2022/01/13 12:06:40;;;;;;;8.80;3.20;;;6.30;46.40;;;;;;5001569;28;20025;-87
2022/01/13 12:09:26;;;;;;;7.37;3.90;;;6.50;46.40;;;;;;5001675;28;20026;-87
2022/01/13 12:11:56;;;;;;;9.30;4.20;;;6.70;46.20;;;;;;4991136;28;20045;-84
2022/01/13 12:14:25;;;;;;;6.60;3.23;;;6.70;46.10;;;;;;5001670;28;20081;-84
2022/01/13 12:16:55;;;;;;;7.27;3.70;;;6.60;45.70;;;;;;5019310;28;20050;-84
2022/01/13 12:19:40;;;;;;;6.30;3.23;;;6.60;45.40;;;;;;5018474;28;20551;-84
2022/01/13 12:22:42;;;;;;;5.17;2.27;;;6.60;44.80;;;;;;4998539;28;20120;-85
2022/01/13 12:25:11;;;;;;;12.33;2.20;;;6.50;44.20;;;;;;5010368;28;20048;-84
2022/01/13 12:27:39;;;;;;;6.17;2.17;;;6.40;44.30;;;;;;5016130;28;20080;-85
2022/01/13 12:30:18;;;;;;;4.33;2.17;;;6.40;43.90;;;;;;4998989;28;20121;-85
2022/01/13 12:32:47;;;;;;;11.90;2.67;;;6.30;44.10;;;;;;4998751;28;20477;-85
2022/01/13 12:35:42;;;;;;;6.67;3.37;;;6.20;43.90;;;;;;4998678;28;20109;-84
2022/01/13 12:38:21;;;;;;;11.47;2.90;;;6.30;44.10;;;;;;4991347;28;20044;-84
2022/01/13 12:40:50;;;;;;;5.50;2.60;;;6.30;44.30;;;;;;4998295;28;20044;-85
2022/01/13 12:46:16;;;;;;;8.40;3.30;;;6.30;45.00;;;;;;5015827;28;20488;-84
2022/01/13 12:48:51;;;;;;;7.60;3.07;;;6.30;45.10;;;;;;5015772;28;20481;-84
2022/01/13 12:51:19;;;;;;;11.83;3.37;;;6.20;45.40;;;;;;4997956;28;20429;-84
2022/01/13 12:53:46;;;;;;;18.20;4.63;;;6.20;45.50;;;;;;5015545;28;20033;-85
2022/01/13 12:56:17;;;;;;;7.63;3.47;;;6.30;45.40;;;;;;4998117;28;20026;-84
2022/01/13 12:58:50;;;;;;;8.70;3.57;;;6.20;45.20;;;;;;4998253;28;20125;-84
2022/01/13 13:01:22;;;;;;;5.70;3.27;;;6.20;45.10;;;;;;4997801;28;20029;-84
2022/01/13 13:04:08;;;;;;;9.00;3.00;;;6.20;44.90;;;;;;4997853;28;20037;-84
2022/01/13 13:06:40;;;;;;;9.87;3.43;;;6.30;45.00;;;;;;4997523;28;20029;-84
2022/01/13 13:09:21;;;;;;;7.67;3.60;;;6.30;44.90;;;;;;4997753;28;20030;-84
2022/01/13 13:11:50;;;;;;;6.87;3.80;;;6.30;44.50;;;;;;4997812;28;20096;-84
2022/01/13 13:14:29;;;;;;;7.30;3.03;;;6.30;44.70;;;;;;4997982;28;20436;-85
2022/01/13 13:16:55;;;;;;;7.90;2.53;;;6.30;44.50;;;;;;4997467;28;20100;-85
2022/01/13 13:19:21;;;;;;;7.13;2.63;;;6.20;44.40;;;;;;5015374;28;20033;-85
2022/01/13 13:21:51;;;;;;;6.77;3.03;;;6.20;44.10;;;;;;4997712;28;20072;-85
2022/01/13 13:24:18;;;;;;;5.73;2.57;;;6.20;44.10;;;;;;5006784;28;20023;-85
2022/01/13 13:26:44;;;;;;;9.13;2.60;;;6.10;43.90;;;;;;4978075;28;20026;-84